createdAt,value
2022-08-11T00:03:07.618Z,102168.19
2022-08-11T00:06:11.278Z,102163.03
2022-08-11T00:09:18.278Z,102163.13
2022-08-11T00:12:21.649Z,102163.00
2022-08-11T00:15:25.258Z,102167.13
2022-08-11T00:18:31.547Z,102155.00
2022-08-11T00:22:04.770Z,102163.16
2022-08-11T00:25:12.108Z,102163.38
2022-08-11T00:28:28.758Z,102162.38
2022-08-11T00:31:33.215Z,102161.00
2022-08-11T00:34:39.556Z,102159.06
2022-08-11T00:37:49.256Z,102161.75
2022-08-11T00:40:58.635Z,102167.56
2022-08-11T00:44:29.571Z,102172.50
2022-08-11T00:47:49.917Z,102161.97
2022-08-11T00:51:10.974Z,102166.97
2022-08-11T00:54:33.657Z,102160.16
2022-08-11T00:58:00.366Z,102165.13
2022-08-11T01:01:28.436Z,102161.44
2022-08-11T01:04:57.504Z,102173.13
2022-08-11T01:08:26.452Z,102178.19
2022-08-11T01:11:55.655Z,102169.16
2022-08-11T01:15:35.830Z,102167.97
2022-08-11T01:19:32.003Z,102172.38
2022-08-11T01:23:20.833Z,102170.97
2022-08-11T01:27:03.891Z,102175.31
2022-08-11T01:30:49.583Z,102173.66
2022-08-11T01:34:33.928Z,102176.84
2022-08-11T01:38:09.846Z,102169.91
2022-08-11T01:41:46.966Z,102175.25
2022-08-11T01:45:07.162Z,102171.88
2022-08-11T01:48:17.027Z,102175.84
2022-08-11T01:51:30.214Z,102173.31
2022-08-11T01:54:42.837Z,102172.44
2022-08-11T01:57:51.913Z,102174.56
2022-08-11T02:01:03.634Z,102171.78
2022-08-11T02:04:24.461Z,102175.84
2022-08-11T02:07:34.548Z,102167.00
2022-08-11T02:11:02.597Z,102168.72
2022-08-11T02:14:20.726Z,102167.94
2022-08-11T02:17:41.922Z,102168.72
2022-08-11T02:21:06.589Z,102169.59
2022-08-11T02:24:18.889Z,102164.25
2022-08-11T02:27:26.349Z,102157.00
2022-08-11T02:30:37.912Z,102159.41
2022-08-11T02:33:43.308Z,102167.66
2022-08-11T02:36:53.691Z,102162.28
2022-08-11T02:40:12.953Z,102157.75
2022-08-11T02:43:35.943Z,102158.66
2022-08-11T02:46:50.759Z,102150.13
2022-08-11T02:50:07.191Z,102157.44
2022-08-11T02:53:18.380Z,102164.41
2022-08-11T02:56:28.413Z,102153.25
2022-08-11T02:59:54.154Z,102157.94
2022-08-11T03:03:08.725Z,102155.56
2022-08-11T03:06:20.728Z,102157.13
2022-08-11T03:09:28.320Z,102153.66
2022-08-11T03:12:53.927Z,102152.63
2022-08-11T03:16:31.038Z,102155.22
2022-08-11T03:19:45.086Z,102155.28
2022-08-11T03:22:57.797Z,102153.94
2022-08-11T03:26:07.222Z,102150.03
2022-08-11T03:29:18.360Z,102155.59
2022-08-11T03:32:33.931Z,102158.72
2022-08-11T03:35:41.795Z,102163.19
2022-08-11T03:38:56.987Z,102165.28
2022-08-11T03:42:14.723Z,102162.28
2022-08-11T03:45:26.064Z,102157.06
2022-08-11T03:48:42.173Z,102155.16
2022-08-11T03:51:52.471Z,102154.50
2022-08-11T03:55:01.703Z,102153.56
2022-08-11T03:58:50.081Z,102153.34
2022-08-11T04:02:13.976Z,102149.28
2022-08-11T04:05:40.662Z,102160.66
2022-08-11T04:09:07.525Z,102154.84
2022-08-11T04:12:45.731Z,102160.13
2022-08-11T04:16:17.498Z,102157.72
2022-08-11T04:19:53.163Z,102151.09
2022-08-11T04:24:35.792Z,102161.22
2022-08-11T04:27:14.639Z,102156.84
2022-08-11T04:30:21.289Z,102155.72
2022-08-11T04:33:56.083Z,102165.56
2022-08-11T04:37:35.611Z,102157.56
2022-08-11T04:41:26.847Z,102152.25
2022-08-11T04:45:03.494Z,102155.59
2022-08-11T04:48:43.501Z,102155.31
2022-08-11T04:52:37.505Z,102151.78
2022-08-11T04:56:21.461Z,102155.06
2022-08-11T05:00:07.526Z,102156.09
2022-08-11T05:03:39.742Z,102150.38
2022-08-11T05:07:13.625Z,102148.88
2022-08-11T05:10:30.012Z,102149.81
2022-08-11T05:13:53.366Z,102152.72
2022-08-11T05:17:17.360Z,102157.88
2022-08-11T05:20:42.237Z,102149.31
2022-08-11T05:24:07.477Z,102156.22
2022-08-11T05:27:30.006Z,102158.88
2022-08-11T05:30:50.983Z,102156.28
2022-08-11T05:34:16.240Z,102161.94
2022-08-11T05:37:27.208Z,102155.00
2022-08-11T05:40:50.941Z,102160.53
2022-08-11T05:44:21.113Z,102155.63
2022-08-11T05:47:44.818Z,102161.72
2022-08-11T05:51:11.416Z,102163.63
2022-08-11T05:54:35.304Z,102169.09
2022-08-11T05:57:50.871Z,102166.50
2022-08-11T06:00:54.805Z,102159.84
2022-08-11T06:04:22.795Z,102165.06
2022-08-11T06:07:29.759Z,102161.72
2022-08-11T06:10:51.507Z,102173.69
2022-08-11T06:13:54.582Z,102171.72
2022-08-11T06:17:00.242Z,102173.66
2022-08-11T06:20:07.218Z,102172.47
2022-08-11T06:23:11.540Z,102161.88
2022-08-11T06:26:16.908Z,102167.94
2022-08-11T06:29:20.238Z,102171.09
2022-08-11T06:32:44.410Z,102175.09
2022-08-11T06:35:55.285Z,102162.19
2022-08-11T06:39:08.484Z,102164.84
2022-08-11T06:42:24.949Z,102161.16
2022-08-11T06:45:47.748Z,102168.44
2022-08-11T06:48:51.372Z,102169.81
2022-08-11T06:51:54.643Z,102166.25
2022-08-11T06:55:11.371Z,102168.28
2022-08-11T06:58:52.803Z,102171.75
2022-08-11T07:02:05.947Z,102162.41
2022-08-11T07:05:13.476Z,102167.41
2022-08-11T07:08:49.360Z,102171.56
2022-08-11T07:12:25.523Z,102161.59
2022-08-11T07:16:12.358Z,102164.91
2022-08-11T07:19:26.000Z,102170.84
2022-08-11T07:23:05.539Z,102166.81
2022-08-11T07:26:37.866Z,102169.34
2022-08-11T07:29:45.698Z,102170.97
2022-08-11T07:32:52.906Z,102165.47
2022-08-11T07:36:01.105Z,102158.91
2022-08-11T07:39:04.506Z,102165.06
2022-08-11T07:42:09.430Z,102164.69
2022-08-11T07:45:30.482Z,102169.63
2022-08-11T07:48:53.614Z,102168.50
2022-08-11T07:52:14.578Z,102167.06
2022-08-11T07:55:22.019Z,102167.59
2022-08-11T07:59:07.485Z,102166.00
2022-08-11T08:02:31.138Z,102175.88
2022-08-11T08:05:53.580Z,102169.66
2022-08-11T08:09:15.321Z,102171.03
2022-08-11T08:12:38.963Z,102171.03
2022-08-11T08:15:59.905Z,102177.84
2022-08-11T08:19:02.838Z,102174.59
2022-08-11T08:22:38.271Z,102171.50
2022-08-11T08:25:32.134Z,102172.22
2022-08-11T08:28:35.628Z,102177.72
2022-08-11T08:31:39.723Z,102173.06
2022-08-11T08:34:42.328Z,102175.44
2022-08-11T08:37:47.797Z,102171.19
2022-08-11T08:40:55.964Z,102169.13
2022-08-11T08:44:34.729Z,102164.34
2022-08-11T08:47:41.761Z,102162.97
2022-08-11T08:51:08.627Z,102160.72
2022-08-11T08:54:18.720Z,102165.31
2022-08-11T08:57:23.831Z,102146.28
2022-08-11T09:00:26.800Z,102150.25
2022-08-11T09:04:04.217Z,102151.44
2022-08-11T09:06:52.817Z,102155.81
2022-08-11T09:10:00.110Z,102148.03
2022-08-11T09:13:08.197Z,102152.94
2022-08-11T09:16:11.854Z,102142.44
2022-08-11T09:19:17.423Z,102140.16
2022-08-11T09:22:44.265Z,102132.41
2022-08-11T09:26:06.567Z,102132.03
2022-08-11T09:29:10.647Z,102133.66
2022-08-11T09:32:14.936Z,102130.09
2022-08-11T09:35:18.059Z,102135.78
2022-08-11T09:38:57.535Z,102131.69
2022-08-11T09:42:04.353Z,102119.97
2022-08-11T09:45:07.872Z,102128.16
2022-08-11T09:48:13.229Z,102104.38
2022-08-11T09:51:18.246Z,102124.56
2022-08-11T09:54:23.036Z,102105.91
2022-08-11T09:57:46.072Z,102104.63
2022-08-11T10:00:50.539Z,102097.56
2022-08-11T10:03:56.251Z,102100.13
2022-08-11T10:07:06.835Z,102093.03
2022-08-11T10:10:11.665Z,102097.25
2022-08-11T10:14:10.067Z,102088.84
2022-08-11T10:16:42.863Z,102090.50
2022-08-11T10:20:04.459Z,102081.06
2022-08-11T10:23:28.867Z,102065.44
2022-08-11T10:26:54.320Z,102065.63
2022-08-11T10:30:16.598Z,102067.84
2022-08-11T10:33:42.966Z,102061.13
2022-08-11T10:37:02.938Z,102061.63
2022-08-11T10:40:10.998Z,102061.53
2022-08-11T10:43:17.063Z,102056.84
2022-08-11T10:46:57.395Z,102051.44
2022-08-11T10:50:18.758Z,102061.44
2022-08-11T10:53:39.556Z,102062.13
2022-08-11T10:57:00.566Z,102054.47
2022-08-11T11:00:05.889Z,102050.06
2022-08-11T11:03:23.002Z,102048.09
2022-08-11T11:06:30.212Z,102052.44
2022-08-11T11:09:35.651Z,102049.38
2022-08-11T11:13:00.472Z,102033.84
2022-08-11T11:16:20.963Z,102027.09
2022-08-11T11:19:27.127Z,102025.31
2022-08-11T11:22:40.789Z,102024.88
2022-08-11T11:26:07.289Z,102028.59
2022-08-11T11:29:40.511Z,102012.97
2022-08-11T11:32:50.234Z,102028.19
2022-08-11T11:36:11.723Z,102029.94
2022-08-11T11:39:14.843Z,102034.66
2022-08-11T11:42:18.635Z,102028.47
2022-08-11T11:45:25.218Z,102025.31
2022-08-11T11:48:28.822Z,102032.50
2022-08-11T11:51:33.124Z,102027.19
2022-08-11T11:54:37.500Z,102024.84
2022-08-11T11:58:02.604Z,102021.25
2022-08-11T12:01:19.984Z,102012.72
2022-08-11T12:04:23.925Z,102015.94
2022-08-11T12:07:45.557Z,102021.69
2022-08-11T12:11:20.540Z,102016.88
2022-08-11T12:14:25.670Z,102010.53
2022-08-11T12:17:28.474Z,102004.97
2022-08-11T12:20:34.182Z,102004.06
2022-08-11T12:24:04.620Z,102004.38
2022-08-11T12:27:25.183Z,101995.75
2022-08-11T12:30:29.107Z,101995.56
2022-08-11T12:33:34.137Z,101997.56
2022-08-11T12:36:40.190Z,101999.78
2022-08-11T12:40:16.939Z,101980.84
2022-08-11T12:43:56.849Z,101989.72
2022-08-11T12:47:02.936Z,101988.69
2022-08-11T12:50:23.695Z,101975.31
2022-08-11T12:53:30.646Z,101974.69
2022-08-11T12:56:59.642Z,101965.84
2022-08-11T13:00:20.898Z,101958.75
2022-08-11T13:03:42.642Z,101956.81
2022-08-11T13:06:47.104Z,101955.47
2022-08-11T13:09:51.522Z,101955.78
2022-08-11T13:12:54.623Z,101945.84
2022-08-11T13:15:58.290Z,101948.72
2022-08-11T13:19:01.774Z,101952.16
2022-08-11T13:22:05.164Z,101943.59
2022-08-11T13:25:09.230Z,101932.53
2022-08-11T13:28:21.287Z,101928.09
2022-08-11T13:31:23.968Z,101931.41
2022-08-11T13:34:30.977Z,101917.81
2022-08-11T13:38:18.504Z,101924.22
2022-08-11T13:40:57.971Z,101928.56
2022-08-11T13:44:02.624Z,101917.00
2022-08-11T13:47:07.742Z,101925.13
2022-08-11T13:50:12.485Z,101919.16
2022-08-11T13:53:18.142Z,101909.50
2022-08-11T13:56:23.217Z,101908.88
2022-08-11T13:59:29.858Z,101906.34
2022-08-11T14:02:34.442Z,101905.75
2022-08-11T14:05:45.879Z,101899.38
2022-08-11T14:08:53.555Z,101905.63
2022-08-11T14:12:21.231Z,101895.88
2022-08-11T14:15:30.201Z,101888.81
2022-08-11T14:18:34.810Z,101889.47
2022-08-11T14:22:02.529Z,101889.44
2022-08-11T14:25:10.557Z,101882.16
2022-08-11T14:28:33.518Z,101875.56
2022-08-11T14:31:39.892Z,101875.97
2022-08-11T14:34:44.376Z,101879.47
2022-08-11T14:37:48.556Z,101878.22
2022-08-11T14:41:10.090Z,101870.88
2022-08-11T14:44:30.920Z,101864.84
2022-08-11T14:47:37.424Z,101863.13
2022-08-11T14:50:40.532Z,101864.53
2022-08-11T14:53:52.001Z,101858.03
2022-08-11T14:57:00.713Z,101854.59
2022-08-11T15:00:06.764Z,101861.13
2022-08-11T15:03:13.771Z,101861.44
2022-08-11T15:06:16.930Z,101866.47
2022-08-11T15:09:19.913Z,101868.19
2022-08-11T15:12:32.640Z,101854.75
2022-08-11T15:15:55.828Z,101855.66
2022-08-11T15:19:01.707Z,101852.13
2022-08-11T15:22:27.384Z,101846.59
2022-08-11T15:25:34.486Z,101853.97
2022-08-11T15:28:58.001Z,101857.09
2022-08-11T15:32:18.573Z,101857.09
2022-08-11T15:35:40.494Z,101857.47
2022-08-11T15:38:55.252Z,101848.25
2022-08-11T15:42:20.665Z,101848.38
2022-08-11T15:45:43.513Z,101833.41
2022-08-11T15:48:49.946Z,101842.06
2022-08-11T15:52:02.227Z,101836.59
2022-08-11T15:55:08.989Z,101836.78
2022-08-11T15:58:31.849Z,101841.84
2022-08-11T16:01:53.960Z,101840.81
2022-08-11T16:04:59.525Z,101844.94
2022-08-11T16:08:04.946Z,101840.66
2022-08-11T16:11:09.709Z,101838.13
2022-08-11T16:14:34.070Z,101835.28
2022-08-11T16:17:41.301Z,101833.47
2022-08-11T16:20:45.773Z,101834.63
2022-08-11T16:23:51.448Z,101826.59
2022-08-11T16:27:07.693Z,101827.09
2022-08-11T16:30:15.132Z,101833.34
2022-08-11T16:33:48.504Z,101827.91
2022-08-11T16:36:58.565Z,101823.03
2022-08-11T16:40:02.857Z,101820.47
2022-08-11T16:43:26.363Z,101833.19
2022-08-11T16:46:46.950Z,101835.47
2022-08-11T16:49:52.881Z,101833.03
2022-08-11T16:52:55.773Z,101826.28
2022-08-11T16:56:04.609Z,101816.53
2022-08-11T16:59:16.745Z,101820.75
2022-08-11T17:02:36.965Z,101820.03
2022-08-11T17:06:02.971Z,101816.31
2022-08-11T17:09:24.364Z,101817.19
2022-08-11T17:12:49.833Z,101816.38
2022-08-11T17:16:07.862Z,101808.63
2022-08-11T17:19:13.849Z,101809.22
2022-08-11T17:22:36.669Z,101811.34
2022-08-11T17:26:03.659Z,101803.78
2022-08-11T17:29:07.031Z,101804.03
2022-08-11T17:32:28.468Z,101808.47
2022-08-11T17:35:35.089Z,101813.66
2022-08-11T17:38:39.739Z,101814.09
2022-08-11T17:42:02.050Z,101803.63
2022-08-11T17:45:25.097Z,101814.50
2022-08-11T17:48:29.944Z,101807.06
2022-08-11T17:51:50.579Z,101814.50
2022-08-11T17:55:13.381Z,101803.75
2022-08-11T17:58:36.656Z,101808.59
2022-08-11T18:01:42.513Z,101808.25
2022-08-11T18:04:49.388Z,101810.59
2022-08-11T18:08:13.295Z,101816.72
2022-08-11T18:12:06.634Z,101808.81
2022-08-11T18:15:15.507Z,101811.84
2022-08-11T18:18:38.654Z,101812.81
2022-08-11T18:22:14.166Z,101817.78
2022-08-11T18:25:45.088Z,101813.00
2022-08-11T18:29:09.349Z,101823.88
2022-08-11T18:32:49.257Z,101815.78
2022-08-11T18:36:14.669Z,101819.81
2022-08-11T18:39:39.488Z,101831.81
2022-08-11T18:43:02.476Z,101822.88
2022-08-11T18:46:26.344Z,101824.75
2022-08-11T18:50:02.434Z,101821.69
2022-08-11T18:53:29.296Z,101833.19
2022-08-11T18:56:50.387Z,101834.56
2022-08-11T19:00:12.132Z,101839.44
2022-08-11T19:03:43.191Z,101833.53
2022-08-11T19:07:06.375Z,101838.00
2022-08-11T19:10:29.436Z,101846.91
2022-08-11T19:13:51.671Z,101840.88
2022-08-11T19:17:14.664Z,101844.22
2022-08-11T19:20:55.695Z,101845.69
2022-08-11T19:24:19.632Z,101849.91
2022-08-11T19:27:43.025Z,101854.47
2022-08-11T19:31:04.134Z,101847.91
2022-08-11T19:34:25.002Z,101843.34
2022-08-11T19:37:46.701Z,101839.19
2022-08-11T19:41:08.082Z,101847.88
2022-08-11T19:44:32.568Z,101853.25
2022-08-11T19:48:14.176Z,101851.03
2022-08-11T19:51:34.415Z,101856.22
2022-08-11T19:54:56.305Z,101850.16
2022-08-11T19:58:16.373Z,101859.34
2022-08-11T20:01:37.757Z,101859.56
2022-08-11T20:05:17.614Z,101856.09
2022-08-11T20:08:38.796Z,101854.50
2022-08-11T20:12:02.864Z,101860.56
2022-08-11T20:15:24.623Z,101852.53
2022-08-11T20:18:47.202Z,101852.78
2022-08-11T20:22:08.439Z,101858.91
2022-08-11T20:25:31.593Z,101855.44
2022-08-11T20:28:53.433Z,101857.06
2022-08-11T20:32:14.016Z,101863.53
2022-08-11T20:35:36.152Z,101863.59
2022-08-11T20:38:56.836Z,101866.03
2022-08-11T20:42:17.707Z,101859.63
2022-08-11T20:45:52.258Z,101857.72
2022-08-11T20:49:20.594Z,101860.41
2022-08-11T20:56:28.760Z,101861.38
2022-08-11T20:59:56.634Z,101858.03
2022-08-11T21:03:36.339Z,101864.72
2022-08-11T21:06:58.997Z,101869.72
2022-08-11T21:10:23.250Z,101870.25
2022-08-11T21:13:48.225Z,101862.16
2022-08-11T21:17:27.699Z,101870.38
2022-08-11T21:20:50.284Z,101862.69
2022-08-11T21:24:11.052Z,101867.13
2022-08-11T21:27:35.579Z,101872.75
2022-08-11T21:30:58.001Z,101870.38
2022-08-11T21:34:18.948Z,101872.50
2022-08-11T21:37:39.518Z,101874.91
2022-08-11T21:41:02.783Z,101872.63
2022-08-11T21:44:25.470Z,101874.47
2022-08-11T21:47:47.067Z,101886.97
2022-08-11T21:51:07.129Z,101884.19
2022-08-11T21:54:28.339Z,101878.78
2022-08-11T21:57:50.437Z,101881.16
2022-08-11T22:01:13.534Z,101876.06
2022-08-11T22:04:35.305Z,101878.03
2022-08-11T22:07:55.978Z,101891.78
2022-08-11T22:11:17.063Z,101881.72
2022-08-11T22:14:53.050Z,101890.03
2022-08-11T22:18:14.445Z,101898.75
2022-08-11T22:21:59.585Z,101894.19
2022-08-11T22:25:18.413Z,101896.25
2022-08-11T22:28:38.856Z,101894.28
2022-08-11T22:32:00.486Z,101893.78
2022-08-11T22:35:24.162Z,101883.69
2022-08-11T22:38:51.455Z,101888.81
2022-08-11T22:42:11.507Z,101883.19
2022-08-11T22:45:31.900Z,101876.84
2022-08-11T22:48:54.208Z,101879.78
2022-08-11T22:52:18.033Z,101878.81
2022-08-11T22:55:39.264Z,101880.31
2022-08-11T22:58:59.943Z,101875.56
2022-08-11T23:02:21.377Z,101880.91
2022-08-11T23:05:42.834Z,101884.97
2022-08-11T23:09:04.971Z,101884.03
2022-08-11T23:12:26.121Z,101881.31
2022-08-11T23:15:46.787Z,101885.53
2022-08-11T23:19:08.741Z,101881.50
2022-08-11T23:22:39.488Z,101880.53
2022-08-11T23:26:11.524Z,101883.03
2022-08-11T23:29:33.397Z,101880.56
2022-08-11T23:32:54.964Z,101888.84
2022-08-11T23:36:36.158Z,101886.25
2022-08-11T23:39:55.601Z,101874.84
2022-08-11T23:43:17.448Z,101884.59
2022-08-11T23:46:39.413Z,101887.16
2022-08-11T23:50:00.264Z,101880.06
2022-08-11T23:53:21.279Z,101879.50
2022-08-11T23:56:41.807Z,101885.19
